Time;durP1;ratioP1;P1;durP2;ratioP2;P2;SDS_P1;SDS_P2;PMS_P1;PMS_P2;Temp;Humidity;BMP_temperature;BMP_pressure;BME280_temperature;BME280_humidity;BME280_pressure;Samples;Min_cycle;Max_cycle;Signal;HPM_P1;HPM_P2
2022/05/20 00:02:25;;;;;;;0.50;0.30;;;;;;;19.30;100.00;100716.78;5054522;28;20501;-56
2022/05/20 00:04:52;;;;;;;0.70;0.70;;;;;;;19.02;100.00;100736.38;5065560;28;20500;-57
2022/05/20 00:07:18;;;;;;;0.40;0.20;;;;;;;18.91;100.00;100736.97;5047423;28;20493;-57
2022/05/20 00:09:45;;;;;;;0.50;0.30;;;;;;;19.42;100.00;100727.72;5061456;28;20447;-57
2022/05/20 00:12:11;;;;;;;1.90;0.93;;;;;;;19.09;100.00;100716.22;5058935;28;20943;-57
2022/05/20 00:14:38;;;;;;;0.63;0.53;;;;;;;18.74;100.00;100704.72;5061865;28;20490;-57
2022/05/20 00:17:05;;;;;;;1.33;0.93;;;;;;;18.82;100.00;100700.66;5059465;28;20466;-57
2022/05/20 00:19:33;;;;;;;0.40;0.30;;;;;;;19.10;100.00;100715.25;5074078;28;20521;-57
2022/05/20 00:22:00;;;;;;;0.60;0.60;;;;;;;19.33;100.00;100736.38;5049043;28;20452;-57
2022/05/20 00:24:27;;;;;;;0.40;0.40;;;;;;;19.42;100.00;100734.94;5058761;28;20449;-56
2022/05/20 00:26:54;;;;;;;0.50;0.40;;;;;;;19.51;100.00;100750.63;5059713;28;20486;-57
2022/05/20 00:29:21;;;;;;;0.40;0.30;;;;;;;19.80;100.00;100775.91;5061298;28;20558;-57
2022/05/20 00:31:47;;;;;;;0.77;0.77;;;;;;;19.47;100.00;100746.38;5073402;28;20449;-58
2022/05/20 00:34:14;;;;;;;1.03;1.03;;;;;;;18.59;100.00;100712.66;5060830;28;20465;-58
2022/05/20 00:36:41;;;;;;;0.40;0.27;;;;;;;18.49;100.00;100700.63;5066580;28;21039;-58
2022/05/20 00:39:07;;;;;;;0.40;0.20;;;;;;;18.43;100.00;100700.13;5066604;28;20495;-58
2022/05/20 00:41:34;;;;;;;0.40;0.20;;;;;;;19.02;100.00;100701.34;5059711;28;20878;-58
2022/05/20 00:44:00;;;;;;;0.40;0.30;;;;;;;18.89;100.00;100695.78;5060493;28;20447;-58
2022/05/20 00:46:28;;;;;;;0.40;0.30;;;;;;;19.18;100.00;100694.97;5066690;28;20471;-58
2022/05/20 00:49:00;;;;;;;1.23;0.40;;;;;;;19.04;100.00;100697.59;5066337;28;20490;-58
2022/05/20 00:51:35;;;;;;;0.40;0.20;;;;;;;18.86;100.00;100699.50;5066211;28;20482;-58
2022/05/20 00:54:15;;;;;;;0.50;0.43;;;;;;;18.76;100.00;100697.41;5066264;28;20499;-58
2022/05/20 00:56:55;;;;;;;0.40;0.20;;;;;;;18.81;100.00;100695.34;5062031;28;20462;-58
2022/05/20 00:59:26;;;;;;;0.40;0.30;;;;;;;18.78;100.00;100725.16;5059513;28;20442;-58
2022/05/20 01:01:56;;;;;;;0.40;0.23;;;;;;;18.68;100.00;100757.09;5060989;28;20446;-58
2022/05/20 01:04:23;;;;;;;0.50;0.50;;;;;;;18.71;100.00;100762.31;5059967;28;20457;-58
2022/05/20 01:06:50;;;;;;;3.07;1.13;;;;;;;19.10;100.00;100783.50;5059745;28;20479;-58
2022/05/20 01:09:17;;;;;;;0.50;0.40;;;;;;;19.38;100.00;100807.06;5065469;28;20517;-58
2022/05/20 01:11:43;;;;;;;2.17;2.07;;;;;;;18.87;100.00;100794.66;5054473;28;20451;-58
2022/05/20 01:14:18;;;;;;;0.40;0.30;;;;;;;18.35;100.00;100703.22;5064857;28;20450;-58
2022/05/20 01:16:45;;;;;;;0.40;0.20;;;;;;;17.82;100.00;100602.06;5064080;28;20466;-58
2022/05/20 01:19:22;;;;;;;0.40;0.20;;;;;;;17.60;100.00;100594.22;5062836;28;20442;-58
2022/05/20 01:21:49;;;;;;;0.40;0.20;;;;;;;17.95;100.00;100595.03;5065826;28;20516;-58
2022/05/20 01:24:15;;;;;;;0.40;0.30;;;;;;;18.04;100.00;100616.09;5063655;28;20516;-58
2022/05/20 01:26:42;;;;;;;0.50;0.50;;;;;;;18.32;100.00;100650.44;5058808;28;20477;-58
2022/05/20 01:29:08;;;;;;;2.50;1.40;;;;;;;18.58;100.00;100672.34;5061561;28;20482;-58
2022/05/20 01:31:35;;;;;;;0.40;0.30;;;;;;;19.08;100.00;100691.09;5065502;28;20454;-58
2022/05/20 01:34:02;;;;;;;0.40;0.20;;;;;;;19.31;100.00;100688.88;5064065;28;20446;-58
2022/05/20 01:36:29;;;;;;;0.40;0.20;;;;;;;18.93;100.00;100702.75;5051799;28;20467;-58
2022/05/20 01:38:57;;;;;;;0.40;0.20;;;;;;;18.60;100.00;100692.84;5044076;28;20446;-58
2022/05/20 01:41:35;;;;;;;0.40;0.20;;;;;;;18.55;100.00;100673.41;5065591;28;20501;-58
2022/05/20 01:44:17;;;;;;;0.77;0.77;;;;;;;18.50;100.00;100685.34;5065617;28;20438;-58
2022/05/20 01:46:58;;;;;;;1.33;1.33;;;;;;;18.56;100.00;100676.97;5061167;28;20610;-58
2022/05/20 01:49:33;;;;;;;0.50;0.40;;;;;;;18.20;100.00;100679.81;5058709;28;20584;-58
2022/05/20 01:52:03;;;;;;;0.50;0.33;;;;;;;18.66;100.00;100693.50;5053554;28;20504;-58
2022/05/20 01:54:43;;;;;;;0.40;0.20;;;;;;;18.59;100.00;100682.16;5061700;28;20446;-58
2022/05/20 01:57:21;;;;;;;0.50;0.40;;;;;;;18.72;100.00;100690.47;5058649;28;20463;-58
2022/05/20 01:59:53;;;;;;;0.47;0.37;;;;;;;18.74;100.00;100697.50;5062945;28;20442;-58
2022/05/20 02:02:26;;;;;;;0.40;0.30;;;;;;;18.87;100.00;100706.63;5065561;28;20446;-59
2022/05/20 02:05:09;;;;;;;0.40;0.20;;;;;;;18.72;100.00;100714.72;5063634;28;20449;-58
2022/05/20 02:07:39;;;;;;;0.60;0.40;;;;;;;19.22;100.00;100704.63;5053650;28;20500;-58
2022/05/20 02:10:16;;;;;;;0.40;0.30;;;;;;;18.64;100.00;100694.47;5055578;28;20454;-58
2022/05/20 02:12:48;;;;;;;0.93;0.93;;;;;;;18.70;100.00;100681.63;5061563;28;20491;-59
2022/05/20 02:15:39;;;;;;;1.80;1.80;;;;;;;19.13;100.00;100677.34;5058282;28;21036;-58
2022/05/20 02:18:12;;;;;;;0.87;0.87;;;;;;;18.86;100.00;100672.56;5065498;28;20446;-58
2022/05/20 02:21:02;;;;;;;0.40;0.20;;;;;;;18.66;100.00;100667.47;5059964;28;20477;-58
2022/05/20 02:23:40;;;;;;;0.53;0.40;;;;;;;18.98;100.00;100660.22;5058151;28;20515;-58
2022/05/20 02:26:12;;;;;;;0.40;0.20;;;;;;;19.42;100.00;100659.47;5058776;28;20478;-58
2022/05/20 02:28:50;;;;;;;0.40;0.20;;;;;;;19.72;100.00;100665.75;5045469;28;20521;-58
2022/05/20 02:31:29;;;;;;;0.97;0.97;;;;;;;19.15;100.00;100661.94;5057843;28;20474;-58
2022/05/20 02:33:56;;;;;;;0.73;0.73;;;;;;;18.83;100.00;100664.66;5061223;28;20443;-58
2022/05/20 02:36:28;;;;;;;2.30;1.33;;;;;;;18.71;100.00;100653.72;5065425;28;20466;-58
2022/05/20 02:38:54;;;;;;;1.50;0.83;;;;;;;18.64;100.00;100645.13;5062444;28;20442;-58
2022/05/20 02:41:21;;;;;;;0.57;0.50;;;;;;;18.66;100.00;100653.13;5058083;28;20485;-58
2022/05/20 02:43:48;;;;;;;0.40;0.20;;;;;;;18.71;100.00;100651.91;5060273;28;20447;-58
2022/05/20 02:46:14;;;;;;;0.40;0.20;;;;;;;18.63;100.00;100652.31;5065003;28;20517;-58
2022/05/20 02:48:41;;;;;;;0.40;0.20;;;;;;;18.40;100.00;100662.63;5065032;28;20496;-58
2022/05/20 02:51:08;;;;;;;0.40;0.20;;;;;;;18.51;100.00;100668.28;5062495;28;20496;-58
2022/05/20 02:53:35;;;;;;;0.40;0.30;;;;;;;18.47;100.00;100661.31;5063701;28;20474;-58
2022/05/20 02:56:03;;;;;;;0.50;0.33;;;;;;;18.75;100.00;100655.28;5068838;28;20525;-58
2022/05/20 03:04:11;;;;;;;0.40;0.20;;;;;;;18.40;100.00;100660.78;5061895;28;20445;-58
2022/05/20 03:06:49;;;;;;;0.50;0.50;;;;;;;18.43;100.00;100660.63;5063149;28;20982;-58
2022/05/20 03:09:19;;;;;;;0.40;0.20;;;;;;;18.66;100.00;100672.84;5046005;28;20506;-58
2022/05/20 03:11:46;;;;;;;0.40;0.20;;;;;;;18.68;100.00;100676.31;5057345;28;20442;-58
2022/05/20 03:14:16;;;;;;;0.40;0.30;;;;;;;18.59;100.00;100680.34;5066658;28;20446;-58
2022/05/20 03:16:43;;;;;;;0.77;0.50;;;;;;;18.56;100.00;100661.66;5066289;28;21052;-58
2022/05/20 03:19:11;;;;;;;0.63;0.63;;;;;;;18.27;100.00;100660.59;5066191;28;20442;-58
2022/05/20 03:21:38;;;;;;;0.40;0.30;;;;;;;18.28;100.00;100666.84;5068674;28;20457;-58
2022/05/20 03:24:06;;;;;;;0.83;0.80;;;;;;;18.15;100.00;100647.78;5064213;28;20799;-58
2022/05/20 03:26:34;;;;;;;5.23;1.17;;;;;;;18.54;100.00;100642.03;5060998;28;20492;-58
2022/05/20 03:29:03;;;;;;;0.40;0.30;;;;;;;18.38;100.00;100637.59;5064998;28;20486;-58
2022/05/20 03:31:33;;;;;;;0.40;0.20;;;;;;;18.48;100.00;100642.38;5068287;28;20866;-58
2022/05/20 03:34:05;;;;;;;0.40;0.30;;;;;;;18.50;100.00;100640.50;5065968;28;20574;-58
2022/05/20 03:36:38;;;;;;;1.47;0.80;;;;;;;18.48;100.00;100636.97;5063053;22;20503;-56
2022/05/20 03:39:07;;;;;;;0.40;0.30;;;;;;;18.36;100.00;100632.28;5033966;28;20447;-56
2022/05/20 03:41:34;;;;;;;0.40;0.20;;;;;;;18.33;100.00;100619.88;5028913;28;20460;-56
2022/05/20 03:44:02;;;;;;;0.40;0.20;;;;;;;18.32;100.00;100610.06;5014869;28;20452;-56
2022/05/20 03:46:30;;;;;;;0.70;0.60;;;;;;;18.27;100.00;100612.16;5021433;28;20534;-56
2022/05/20 03:48:59;;;;;;;0.40;0.20;;;;;;;18.53;100.00;100613.38;5021013;28;20598;-56
2022/05/20 03:51:26;;;;;;;0.83;0.83;;;;;;;18.58;100.00;100622.06;5027527;28;20453;-56
2022/05/20 03:53:57;;;;;;;0.40;0.20;;;;;;;18.61;100.00;100629.97;5028055;28;20444;-56
2022/05/20 03:56:23;;;;;;;12.03;3.40;;;;;;;18.69;100.00;100628.72;5022881;28;20510;-56
2022/05/20 03:58:50;;;;;;;0.40;0.20;;;;;;;18.76;100.00;100619.31;5021113;28;20483;-56
2022/05/20 04:04:03;;;;;;;2.57;1.07;;;;;;;18.90;100.00;100667.88;5027865;28;20455;-56
2022/05/20 04:06:30;;;;;;;0.40;0.30;;;;;;;19.24;100.00;100707.25;5025779;28;20471;-56
2022/05/20 04:08:57;;;;;;;0.40;0.20;;;;;;;19.26;100.00;100751.16;5030564;28;20928;-56
2022/05/20 04:11:25;;;;;;;0.50;0.30;;;;;;;19.20;100.00;100749.69;5046201;28;20447;-56
2022/05/20 04:13:52;;;;;;;0.40;0.20;;;;;;;19.22;100.00;100747.78;5029831;28;20449;-56
2022/05/20 04:16:19;;;;;;;6.70;0.83;;;;;;;18.79;100.00;100732.28;5026430;28;20471;-56
2022/05/20 04:18:46;;;;;;;0.40;0.30;;;;;;;18.83;100.00;100736.53;5028329;28;20445;-56
2022/05/20 04:21:14;;;;;;;0.40;0.30;;;;;;;18.88;100.00;100732.63;5026760;28;20483;-56
2022/05/20 04:23:42;;;;;;;30.03;1.13;;;;;;;18.99;100.00;100712.28;5020345;28;20869;-56
2022/05/20 04:26:10;;;;;;;1.03;1.03;;;;;;;19.12;100.00;100708.81;5020858;28;20504;-56
2022/05/20 04:28:37;;;;;;;0.40;0.20;;;;;;;18.73;100.00;100692.19;5020807;28;20484;-56
2022/05/20 04:31:06;;;;;;;0.40;0.20;;;;;;;18.29;100.00;100677.50;5020528;28;20526;-56
2022/05/20 04:33:32;;;;;;;0.40;0.30;;;;;;;18.39;100.00;100688.66;5026538;28;20544;-56
2022/05/20 04:35:59;;;;;;;0.50;0.30;;;;;;;18.60;100.00;100683.91;5026899;28;20494;-55
2022/05/20 04:38:26;;;;;;;0.50;0.40;;;;;;;18.49;100.00;100672.84;5033135;28;20440;-56
2022/05/20 04:49:09;;;;;;;0.43;0.27;;;;;;;18.58;100.00;100646.28;5020132;28;20484;-56
2022/05/20 04:51:38;;;;;;;0.40;0.20;;;;;;;18.59;100.00;100649.84;5023983;28;20500;-56
2022/05/20 04:56:52;;;;;;;2.10;0.93;;;;;;;18.61;100.00;100648.81;5026032;28;20472;-56
2022/05/20 04:59:20;;;;;;;0.40;0.20;;;;;;;18.72;100.00;100655.47;5019875;28;20491;-56
2022/05/20 05:01:48;;;;;;;0.40;0.20;;;;;;;18.78;100.00;100639.84;5020437;28;20452;-56
2022/05/20 05:04:20;;;;;;;2.00;1.17;;;;;;;18.97;100.00;100647.72;5019709;28;20452;-56
2022/05/20 05:06:47;;;;;;;0.40;0.20;;;;;;;18.94;100.00;100656.00;5025187;28;20821;-56
2022/05/20 05:09:14;;;;;;;0.50;0.40;;;;;;;18.97;100.00;100663.88;5028828;28;20498;-56
2022/05/20 05:11:41;;;;;;;0.60;0.60;;;;;;;19.03;100.00;100655.44;5045593;28;20451;-56
2022/05/20 05:14:09;;;;;;;0.50;0.30;;;;;;;19.04;100.00;100650.91;5025550;28;20456;-56
2022/05/20 05:16:37;;;;;;;0.40;0.20;;;;;;;19.01;100.00;100645.72;5027444;28;20537;-56
2022/05/20 05:19:05;;;;;;;0.67;0.67;;;;;;;19.10;100.00;100646.06;5024949;28;20445;-56
2022/05/20 05:21:32;;;;;;;6.27;0.87;;;;;;;19.24;100.00;100645.25;5026703;28;20444;-56
2022/05/20 05:24:01;;;;;;;0.93;0.93;;;;;;;19.48;100.00;100640.25;5013031;28;20453;-56
2022/05/20 05:26:34;;;;;;;0.53;0.53;;;;;;;19.62;100.00;100651.09;5026272;28;20467;-56
2022/05/20 05:29:03;;;;;;;0.40;0.27;;;;;;;19.71;100.00;100658.59;5025441;28;20487;-56
2022/05/20 05:31:30;;;;;;;0.40;0.20;;;;;;;20.02;100.00;100652.22;5026977;28;20448;-56
2022/05/20 05:33:56;;;;;;;0.50;0.40;;;;;;;20.23;100.00;100663.50;5023381;28;20960;-56
2022/05/20 05:36:23;;;;;;;0.43;0.30;;;;;;;20.23;100.00;100657.25;5019270;28;20996;-56
2022/05/20 05:38:50;;;;;;;0.40;0.30;;;;;;;20.51;100.00;100668.06;5032542;28;20514;-56
2022/05/20 05:41:20;;;;;;;0.50;0.40;;;;;;;20.59;100.00;100662.19;5019273;28;20447;-56
2022/05/20 05:43:50;;;;;;;1.43;1.43;;;;;;;20.60;100.00;100663.91;5020940;28;20499;-56
2022/05/20 05:46:17;;;;;;;3.80;0.77;;;;;;;20.96;100.00;100666.91;5026046;28;20473;-56
2022/05/20 05:48:44;;;;;;;0.93;0.93;;;;;;;20.74;100.00;100672.00;5024610;28;20489;-56
2022/05/20 05:51:10;;;;;;;0.77;0.77;;;;;;;20.47;100.00;100663.81;5019231;28;20529;-56
2022/05/20 05:53:37;;;;;;;0.40;0.30;;;;;;;20.43;100.00;100658.72;5020322;28;20592;-56
2022/05/20 05:56:06;;;;;;;0.93;0.93;;;;;;;20.41;100.00;100659.66;5025693;28;20472;-56
2022/05/20 05:58:33;;;;;;;0.40;0.20;;;;;;;20.26;100.00;100655.19;5025142;28;20455;-56
2022/05/20 06:01:00;;;;;;;0.40;0.30;;;;;;;20.08;100.00;100648.25;5019243;28;20460;-56
2022/05/20 06:03:27;;;;;;;4.13;1.13;;;;;;;20.22;100.00;100644.69;5019530;28;20460;-56
2022/05/20 06:05:55;;;;;;;0.63;0.63;;;;;;;20.24;100.00;100640.06;5018986;28;20494;-56
2022/05/20 06:08:22;;;;;;;0.40;0.20;;;;;;;20.32;100.00;100649.44;5031886;28;20873;-56
2022/05/20 06:10:48;;;;;;;0.73;0.73;;;;;;;20.43;100.00;100653.31;5035662;28;20497;-56
2022/05/20 06:13:24;;;;;;;4.40;1.47;;;;;;;20.34;100.00;100657.44;5037798;28;20483;-56
2022/05/20 06:15:52;;;;;;;0.50;0.47;;;;;;;20.39;100.00;100653.47;5020994;28;20505;-56
2022/05/20 06:18:20;;;;;;;0.50;0.50;;;;;;;20.66;100.00;100644.59;5025510;28;20470;-56
2022/05/20 06:20:46;;;;;;;1.40;1.40;;;;;;;20.60;100.00;100651.28;5021553;28;20471;-56
2022/05/20 06:23:14;;;;;;;0.40;0.30;;;;;;;21.10;100.00;100655.19;5018571;28;20495;-56
2022/05/20 06:25:41;;;;;;;1.17;1.17;;;;;;;20.84;100.00;100650.66;5022448;28;20802;-56
2022/05/20 06:28:30;;;;;;;1.43;1.43;;;;;;;20.95;100.00;100651.66;5025620;28;20607;-56
2022/05/20 06:31:03;;;;;;;0.77;0.50;;;;;;;21.23;100.00;100634.47;5025338;28;20439;-56
2022/05/20 06:33:30;;;;;;;0.40;0.30;;;;;;;20.88;100.00;100639.53;5019181;28;20543;-56
2022/05/20 06:41:26;;;;;;;2.23;1.07;;;;;;;21.37;100.00;100648.94;5018666;28;20471;-56
2022/05/20 06:43:53;;;;;;;0.40;0.20;;;;;;;21.16;100.00;100648.53;5019594;28;20458;-56
2022/05/20 06:46:19;;;;;;;0.47;0.33;;;;;;;21.20;100.00;100647.34;5025004;28;20476;-56
2022/05/20 06:48:58;;;;;;;1.13;1.13;;;;;;;21.12;100.00;100647.88;5025284;28;20834;-56
2022/05/20 06:51:34;;;;;;;0.40;0.30;;;;;;;20.98;100.00;100643.38;5020325;28;20505;-56
2022/05/20 06:54:02;;;;;;;0.40;0.20;;;;;;;20.84;100.00;100653.34;5018723;28;20419;-56
2022/05/20 06:56:30;;;;;;;1.50;0.57;;;;;;;20.66;100.00;100648.16;5021977;28;20476;-56
2022/05/20 06:59:01;;;;;;;0.40;0.30;;;;;;;20.83;100.00;100638.97;5025437;28;20445;-56
2022/05/20 07:01:28;;;;;;;0.40;0.30;;;;;;;21.26;100.00;100649.69;5022340;28;20452;-56
2022/05/20 07:03:55;;;;;;;0.87;0.87;;;;;;;21.63;100.00;100636.34;5018244;28;20448;-56
2022/05/20 07:06:22;;;;;;;0.40;0.20;;;;;;;21.88;100.00;100639.06;5023502;28;20473;-56
2022/05/20 07:08:50;;;;;;;0.40;0.20;;;;;;;21.92;100.00;100637.88;5026949;28;20479;-56
2022/05/20 07:11:19;;;;;;;1.67;0.90;;;;;;;21.86;100.00;100636.47;5042343;28;20449;-56
2022/05/20 07:13:47;;;;;;;0.70;0.70;;;;;;;22.10;100.00;100633.06;5028673;28;20453;-56
2022/05/20 07:16:17;;;;;;;1.03;1.03;;;;;;;22.15;100.00;100629.03;5023729;28;20463;-56
2022/05/20 07:18:44;;;;;;;2.27;2.10;;;;;;;22.47;100.00;100633.97;5025956;28;20453;-56
2022/05/20 07:21:11;;;;;;;0.77;0.77;;;;;;;21.97;100.00;100626.75;5024067;28;20456;-56
2022/05/20 07:23:38;;;;;;;1.07;1.07;;;;;;;21.95;100.00;100618.72;5017996;28;20451;-56
2022/05/20 07:26:05;;;;;;;0.60;0.60;;;;;;;22.08;100.00;100616.06;5019262;28;20545;-56
2022/05/20 07:28:33;;;;;;;0.80;0.73;;;;;;;22.50;100.00;100625.63;5025210;28;20527;-56
2022/05/20 07:31:00;;;;;;;1.40;1.40;;;;;;;22.51;100.00;100610.25;5024630;28;20495;-56
2022/05/20 07:33:28;;;;;;;0.40;0.30;;;;;;;22.55;100.00;100614.44;5018496;28;20525;-56
2022/05/20 07:35:56;;;;;;;0.83;0.83;;;;;;;22.71;100.00;100625.91;5021459;28;20552;-57
2022/05/20 07:38:23;;;;;;;0.80;0.77;;;;;;;22.76;100.00;100613.75;5034881;28;20443;-56
2022/05/20 07:40:50;;;;;;;0.70;0.70;;;;;;;23.05;100.00;100617.03;5021614;28;20510;-56
2022/05/20 07:43:20;;;;;;;0.60;0.57;;;;;;;23.43;100.00;100610.50;5027707;28;20503;-56
2022/05/20 07:45:49;;;;;;;0.50;0.30;;;;;;;23.02;100.00;100603.69;5028188;28;20517;-56
2022/05/20 07:48:16;;;;;;;2.20;2.10;;;;;;;22.57;100.00;100607.06;5023357;28;20448;-56
2022/05/20 07:50:48;;;;;;;11.20;2.07;;;;;;;23.11;100.00;100594.00;5021250;28;20584;-56
2022/05/20 07:53:20;;;;;;;0.50;0.30;;;;;;;23.37;100.00;100591.13;5025562;28;20472;-56
2022/05/20 07:56:14;;;;;;;0.50;0.40;;;;;;;23.87;100.00;100590.81;5028119;28;20441;-56
2022/05/20 07:58:45;;;;;;;0.40;0.30;;;;;;;22.89;100.00;100586.63;5027766;28;20447;-56
2022/05/20 08:01:22;;;;;;;1.00;0.83;;;;;;;23.18;100.00;100581.72;5023344;28;20439;-56
2022/05/20 08:06:41;;;;;;;0.50;0.40;;;;;;;23.86;100.00;100571.91;5026574;28;20529;-56
2022/05/20 08:09:09;;;;;;;0.83;0.83;;;;;;;24.01;100.00;100575.25;5030166;28;20457;-56
2022/05/20 08:11:36;;;;;;;1.60;1.50;;;;;;;24.43;100.00;100562.78;5047723;28;20967;-56
2022/05/20 08:14:03;;;;;;;0.83;0.83;;;;;;;24.08;100.00;100569.19;5027673;28;20452;-56
2022/05/20 08:16:29;;;;;;;0.87;0.87;;;;;;;24.86;100.00;100560.09;5028257;28;20498;-56
2022/05/20 08:18:56;;;;;;;1.77;1.77;;;;;;;23.96;100.00;100567.47;5026989;28;20423;-56
2022/05/20 08:21:23;;;;;;;0.50;0.30;;;;;;;24.07;100.00;100574.75;5027548;28;21241;-56
2022/05/20 08:23:49;;;;;;;0.70;0.47;;;;;;;23.96;100.00;100569.31;5021782;28;20561;-56
2022/05/20 08:26:18;;;;;;;1.40;1.30;;;;;;;24.12;100.00;100556.22;5020584;28;20502;-56
2022/05/20 08:28:46;;;;;;;0.80;0.80;;;;;;;23.89;100.00;100556.25;5027057;28;20503;-55
2022/05/20 08:31:13;;;;;;;2.00;1.90;;;;;;;24.41;100.00;100549.34;5027423;28;20555;-55
2022/05/20 08:33:41;;;;;;;0.93;0.93;;;;;;;24.92;99.75;100532.38;5022660;28;20455;-56
2022/05/20 08:36:07;;;;;;;0.90;0.57;;;;;;;24.36;100.00;100542.53;5020182;28;20484;-55
2022/05/20 08:38:34;;;;;;;1.03;1.03;;;;;;;24.42;99.24;100540.19;5033778;28;20452;-55
2022/05/20 08:41:01;;;;;;;0.40;0.30;;;;;;;25.02;98.28;100537.94;5020204;28;20483;-56
2022/05/20 08:43:34;;;;;;;0.67;0.67;;;;;;;25.24;96.03;100534.25;5025244;28;20531;-56
2022/05/20 08:46:01;;;;;;;1.30;1.20;;;;;;;24.69;98.01;100544.34;5027081;28;20527;-56
2022/05/20 08:48:28;;;;;;;0.50;0.50;;;;;;;24.96;99.43;100538.44;5023890;28;20459;-56
2022/05/20 08:50:57;;;;;;;0.40;0.30;;;;;;;25.12;98.62;100532.56;5020181;28;20542;-56
2022/05/20 08:53:31;;;;;;;1.50;1.40;;;;;;;24.83;97.41;100538.59;5023032;28;20805;-55
2022/05/20 08:56:00;;;;;;;1.90;1.80;;;;;;;24.92;98.49;100537.81;5026643;28;20442;-55
2022/05/20 08:58:27;;;;;;;1.47;1.37;;;;;;;25.30;96.14;100531.84;5026123;28;20447;-55
2022/05/20 09:00:55;;;;;;;0.60;0.60;;;;;;;25.21;97.48;100532.63;5020048;28;20542;-56
2022/05/20 09:03:22;;;;;;;0.70;0.53;;;;;;;26.14;93.52;100523.59;5021008;28;20783;-56
2022/05/20 09:06:00;;;;;;;2.00;2.00;;;;;;;26.37;91.35;100521.53;5026885;28;20469;-56
2022/05/20 09:08:28;;;;;;;0.90;0.90;;;;;;;26.88;87.74;100512.31;5032313;28;20418;-56
2022/05/20 09:10:58;;;;;;;0.50;0.30;;;;;;;26.64;89.69;100507.25;5038665;28;20986;-56
2022/05/20 09:16:26;;;;;;;0.40;0.30;;;;;;;26.02;92.40;100513.78;5025002;28;20493;-55
2022/05/20 09:19:06;;;;;;;0.50;0.30;;;;;;;25.42;91.86;100502.72;5027026;28;20448;-56
2022/05/20 09:21:39;;;;;;;0.40;0.30;;;;;;;25.73;92.54;100497.31;5026796;28;20837;-56
2022/05/20 09:24:12;;;;;;;0.50;0.30;;;;;;;26.02;92.23;100498.28;5021949;28;20447;-56
2022/05/20 09:26:46;;;;;;;0.43;0.30;;;;;;;26.39;93.18;100498.59;5019327;28;20517;-56
2022/05/20 09:29:41;;;;;;;0.50;0.47;;;;;;;26.73;89.48;100490.91;5021448;28;20453;-56
2022/05/20 09:32:21;;;;;;;1.23;0.90;;;;;;;26.86;88.50;100490.59;5021329;28;20494;-56
2022/05/20 09:35:00;;;;;;;1.27;1.27;;;;;;;27.27;87.74;100473.06;5020066;28;20890;-56
2022/05/20 09:37:34;;;;;;;0.60;0.60;;;;;;;26.63;87.33;100475.53;5033020;28;20473;-56
2022/05/20 09:40:25;;;;;;;0.50;0.37;;;;;;;26.53;88.52;100470.91;5026274;28;20444;-57
2022/05/20 09:43:27;;;;;;;0.40;0.30;;;;;;;27.52;83.87;100463.38;5024971;28;20522;-56
2022/05/20 09:45:57;;;;;;;1.20;1.20;;;;;;;28.00;82.03;100470.56;5026125;28;20529;-57
2022/05/20 09:48:42;;;;;;;0.40;0.30;;;;;;;27.30;84.40;100456.41;5021606;28;20927;-56
2022/05/20 09:51:21;;;;;;;17.73;1.17;;;;;;;27.86;83.08;100449.19;5019152;28;20491;-56
2022/05/20 09:54:09;;;;;;;0.83;0.70;;;;;;;28.10;82.31;100440.41;5019339;28;20442;-56
2022/05/20 09:56:41;;;;;;;0.60;0.50;;;;;;;27.93;84.41;100445.69;5022062;28;20853;-56
2022/05/20 09:59:22;;;;;;;5.03;3.60;;;;;;;27.85;85.03;100445.59;5019095;28;20448;-56
2022/05/20 10:01:59;;;;;;;0.50;0.40;;;;;;;28.35;78.26;100436.13;5019923;28;20423;-56
2022/05/20 10:04:46;;;;;;;0.50;0.40;;;;;;;27.67;79.21;100428.25;5012740;28;20444;-56
2022/05/20 10:07:19;;;;;;;0.60;0.60;;;;;;;27.48;79.41;100429.19;5029279;28;20463;-56
2022/05/20 10:09:54;;;;;;;0.50;0.40;;;;;;;27.89;80.30;100425.16;5028852;28;20458;-56
2022/05/20 10:12:31;;;;;;;0.50;0.30;;;;;;;28.39;78.68;100415.69;5045616;28;20447;-53
2022/05/20 10:15:24;;;;;;;0.50;0.30;;;;;;;28.21;77.81;100415.59;5019073;28;20448;-54
2022/05/20 10:18:03;;;;;;;0.47;0.27;;;;;;;28.59;77.20;100412.63;5032172;28;20446;-53
2022/05/20 10:20:33;;;;;;;1.57;0.80;;;;;;;28.15;76.96;100402.56;5018880;28;20467;-54
2022/05/20 10:23:15;;;;;;;0.47;0.40;;;;;;;28.81;76.14;100397.59;5018736;28;20449;-54
2022/05/20 10:25:46;;;;;;;2.77;2.63;;;;;;;28.49;75.59;100395.41;5022972;28;20514;-53
2022/05/20 10:28:13;;;;;;;2.10;1.90;;;;;;;28.93;76.03;100386.44;5025509;28;20448;-54
2022/05/20 10:33:43;;;;;;;10.53;1.90;;;;;;;29.26;72.90;100384.75;4981070;28;20458;-53
2022/05/20 10:36:33;;;;;;;9.33;3.17;;;;;;;29.56;71.34;100383.41;5018468;28;20924;-53
2022/05/20 10:39:09;;;;;;;0.40;0.30;;;;;;;29.58;70.55;100374.00;5032010;28;20972;-56
2022/05/20 10:42:07;;;;;;;1.73;1.70;;;;;;;29.62;72.27;100361.69;5022680;28;20964;-53
2022/05/20 10:48:35;;;;;;;0.70;0.53;;;;;;;28.66;72.13;100344.47;5006181;28;20495;-56
2022/05/20 10:51:24;;;;;;;2.07;1.97;;;;;;;28.79;69.64;100319.41;5025159;28;20471;-52
2022/05/20 10:54:10;;;;;;;0.53;0.53;;;;;;;28.42;68.60;100295.00;5025262;28;20448;-53
2022/05/20 10:56:57;;;;;;;2.70;1.33;;;;;;;28.56;70.38;100280.75;5022041;28;20819;-56
2022/05/20 10:59:30;;;;;;;0.50;0.40;;;;;;;28.81;71.31;100290.00;5018477;28;20937;-55
2022/05/20 11:02:24;;;;;;;0.53;0.53;;;;;;;28.24;72.25;100273.13;5018463;28;20504;-55
2022/05/20 11:05:20;;;;;;;1.17;1.17;;;;;;;28.08;72.32;100256.56;5020600;28;20475;-55
2022/05/20 11:08:05;;;;;;;0.50;0.30;;;;;;;28.46;70.78;100256.22;5025830;28;21016;-57
2022/05/20 11:11:13;;;;;;;0.50;0.33;;;;;;;29.06;69.95;100272.75;5035609;28;20490;-56
2022/05/20 11:14:00;;;;;;;1.00;1.00;;;;;;;28.93;70.56;100236.75;5034816;28;20427;-55
2022/05/20 11:16:57;;;;;;;0.50;0.40;;;;;;;29.35;68.06;100216.72;5028733;28;20442;-55
2022/05/20 11:19:33;;;;;;;1.07;1.07;;;;;;;28.47;69.74;100172.31;5026349;28;20505;-55
2022/05/20 11:22:27;;;;;;;0.50;0.50;;;;;;;28.79;70.51;100215.41;5022066;28;20429;-53
2022/05/20 11:25:11;;;;;;;2.47;1.00;;;;;;;29.13;68.61;100268.31;5022156;28;20503;-55
2022/05/20 11:28:07;;;;;;;0.50;0.50;;;;;;;29.36;67.84;100301.44;5025196;28;20451;-56
2022/05/20 11:30:56;;;;;;;4.90;1.80;;;;;;;29.09;67.32;100307.13;5026074;28;20552;-56
2022/05/20 11:33:54;;;;;;;0.70;0.70;;;;;;;29.46;66.86;100287.59;5021903;28;20513;-55
2022/05/20 11:36:52;;;;;;;0.90;0.90;;;;;;;29.27;66.20;100260.50;5021799;28;20529;-55
2022/05/20 11:39:47;;;;;;;0.70;0.70;;;;;;;29.50;65.08;100253.44;5033514;28;20541;-56
2022/05/20 11:42:37;;;;;;;1.87;1.43;;;;;;;29.11;67.47;100247.59;5028146;28;20439;-55
2022/05/20 11:45:47;;;;;;;0.70;0.70;;;;;;;29.07;66.62;100233.38;5026607;28;20455;-56
2022/05/20 11:48:25;;;;;;;0.57;0.50;;;;;;;29.69;64.34;100222.13;5023680;28;20419;-56
2022/05/20 11:50:52;;;;;;;0.60;0.60;;;;;;;29.85;64.71;100218.53;5021477;28;20497;-56
2022/05/20 11:53:32;;;;;;;0.50;0.40;;;;;;;30.09;63.77;100229.56;5025005;28;20476;-53
2022/05/20 11:56:07;;;;;;;0.80;0.80;;;;;;;29.92;63.84;100257.97;5028178;28;20500;-56
2022/05/20 11:58:43;;;;;;;0.40;0.30;;;;;;;29.55;65.14;100283.06;5028573;28;20443;-55
2022/05/20 12:01:11;;;;;;;0.40;0.30;;;;;;;29.34;65.28;100294.44;5023287;28;20447;-56
2022/05/20 12:06:27;;;;;;;0.53;0.40;;;;;;;28.54;67.94;100222.63;5026161;28;20521;-55
2022/05/20 12:08:57;;;;;;;0.40;0.30;;;;;;;28.88;67.50;100200.78;5030018;28;20452;-56
2022/05/20 12:11:29;;;;;;;1.13;1.00;;;;;;;29.40;68.11;100197.88;5046183;28;20929;-56
2022/05/20 12:14:01;;;;;;;0.50;0.30;;;;;;;29.64;66.48;100188.91;5029095;28;20448;-56
2022/05/20 12:16:29;;;;;;;0.40;0.30;;;;;;;29.90;64.10;100173.16;5027867;28;20520;-56
2022/05/20 12:24:47;;;;;;;0.40;0.30;;;;;;;29.57;59.38;100158.56;5021026;28;20468;-55
2022/05/20 12:27:26;;;;;;;0.60;0.40;;;;;;;29.88;60.32;100156.03;5026179;28;20451;-55
2022/05/20 12:30:04;;;;;;;0.70;0.70;;;;;;;29.68;61.09;100144.53;5027469;28;20452;-56